Time;durP1;ratioP1;P1;durP2;ratioP2;P2;SDS_P1;SDS_P2;PMS_P1;PMS_P2;Temp;Humidity;BMP_temperature;BMP_pressure;BME280_temperature;BME280_humidity;BME280_pressure;Samples;Min_cycle;Max_cycle;Signal;HPM_P1;HPM_P2
2022/04/26 03:36:25;;;;;;;;;;;;;;;25.42;38.35;93740.31;4965742;28;7539;-60
2022/04/26 03:39:00;;;;;;;;;;;;;;;25.45;38.21;93747.53;4955231;28;8985;-60
2022/04/26 03:41:39;;;;;;;;;;;;;;;25.41;37.69;93738.78;4942900;28;9105;-60
2022/04/26 03:44:17;;;;;;;;;;;;;;;25.39;38.27;93735.84;4953086;28;7620;-60
2022/04/26 03:46:52;;;;;;;;;;;;;;;25.40;38.27;93731.81;4955617;28;9133;-60
2022/04/26 03:49:34;;;;;;;;;;;;;;;25.42;37.61;93735.53;4971635;28;7210;-60
2022/04/26 03:52:21;;;;;;;;;;;;;;;25.42;38.67;93734.81;4977530;28;6861;-60
2022/04/26 03:54:57;;;;;;;;;;;;;;;25.37;38.77;93733.63;4969649;28;8785;-60
2022/04/26 03:57:39;;;;;;;;;;;;;;;25.37;38.54;93733.63;4953296;28;7360;-60
2022/04/26 04:00:11;;;;;;;;;;;;;;;25.38;37.77;93737.84;4954845;28;8764;-60
2022/04/26 04:02:37;;;;;;;;;;;;;;;25.38;38.40;93728.84;4955013;28;7354;-60
2022/04/26 04:05:03;;;;;;;;;;;;;;;25.39;38.23;93742.09;4967743;28;7304;-60
2022/04/26 04:07:29;;;;;;;;;;;;;;;25.42;37.66;93730.03;4970148;28;7286;-60
2022/04/26 04:10:00;;;;;;;;;;;;;;;25.43;38.21;93730.78;4969724;28;9134;-60
2022/04/26 04:12:44;;;;;;;;;;;;;;;25.41;38.42;93744.31;4976440;28;7229;-60
2022/04/26 04:15:11;;;;;;;;;;;;;;;25.41;38.42;93749.81;5053590;28;9167;-60
2022/04/26 04:17:39;;;;;;;;;;;;;;;25.37;38.35;93749.38;5031389;28;7150;-60
2022/04/26 04:20:09;;;;;;;;;;;;;;;25.37;38.20;93750.13;5043045;28;8954;-60
2022/04/26 04:22:38;;;;;;;;;;;;;;;25.41;38.17;93749.81;5047313;28;7178;-60
2022/04/26 04:25:08;;;;;;;;;;;;;;;25.37;38.06;93757.63;5034697;28;8774;-60
2022/04/26 04:27:48;;;;;;;;;;;;;;;25.35;38.34;93757.41;5059434;28;7261;-60
2022/04/26 04:30:42;;;;;;;;;;;;;;;25.35;38.69;93758.16;5049789;28;9042;-60
2022/04/26 04:33:16;;;;;;;;;;;;;;;25.36;38.18;93762.41;4954117;28;7399;-60
2022/04/26 04:35:42;;;;;;;;;;;;;;;25.38;38.11;93756.38;4956963;28;7212;-61
2022/04/26 04:38:09;;;;;;;;;;;;;;;25.34;38.20;93756.66;4950385;28;6967;-60
2022/04/26 04:40:39;;;;;;;;;;;;;;;25.35;37.84;93754.66;4952149;28;7135;-60
2022/04/26 04:43:44;;;;;;;;;;;;;;;25.38;37.71;93754.34;4945375;28;9006;-60
2022/04/26 04:46:20;;;;;;;;;;;;;;;25.38;37.78;93746.09;4912578;29;7218;-60
2022/04/26 04:48:50;;;;;;;;;;;;;;;25.37;38.18;93749.38;4913559;29;7143;-60
2022/04/26 04:51:17;;;;;;;;;;;;;;;25.34;38.07;93755.91;4909433;29;7229;-61
2022/04/26 04:53:43;;;;;;;;;;;;;;;25.38;38.26;93754.34;4918894;29;6987;-61
2022/04/26 04:56:10;;;;;;;;;;;;;;;25.38;37.66;93742.63;4906299;29;9546;-61
2022/04/26 04:58:37;;;;;;;;;;;;;;;25.40;37.29;93756.59;4906741;29;7029;-61
2022/04/26 05:01:05;;;;;;;;;;;;;;;25.40;38.04;93748.34;4919720;29;7049;-60
2022/04/26 05:03:33;;;;;;;;;;;;;;;25.39;38.10;93757.84;4918435;29;8731;-61
2022/04/26 05:05:59;;;;;;;;;;;;;;;25.37;37.72;93760.38;4908354;29;7243;-60
2022/04/26 05:08:27;;;;;;;;;;;;;;;25.38;37.28;93757.09;4915293;29;9115;-61
2022/04/26 05:10:56;;;;;;;;;;;;;;;25.40;37.86;93762.09;4928290;29;7225;-61
2022/04/26 05:13:34;;;;;;;;;;;;;;;25.39;37.80;93755.84;4922353;29;7258;-61
2022/04/26 05:16:11;;;;;;;;;;;;;;;25.38;37.87;93759.13;4945116;29;7038;-60
2022/04/26 05:18:41;;;;;;;;;;;;;;;25.39;37.68;93760.59;4947917;29;7519;-61
2022/04/26 05:21:27;;;;;;;;;;;;;;;25.41;37.52;93767.06;5031404;28;9461;-60
2022/04/26 05:26:45;;;;;;;;;;;;;;;25.38;37.07;93772.91;5043276;28;8707;-60
2022/04/26 05:29:32;;;;;;;;;;;;;;;25.32;37.08;93766.72;5041782;28;7024;-60
2022/04/26 05:32:02;;;;;;;;;;;;;;;25.33;37.11;93771.72;5036582;28;10412;-61
2022/04/26 05:34:35;;;;;;;;;;;;;;;25.29;37.04;93770.53;5059234;28;9021;-61
2022/04/26 05:37:02;;;;;;;;;;;;;;;25.25;37.34;93773.56;5040283;28;7242;-60
2022/04/26 05:39:28;;;;;;;;;;;;;;;25.22;37.84;93776.63;5034419;28;7417;-60
2022/04/26 05:41:56;;;;;;;;;;;;;;;25.17;37.16;93780.19;5036605;28;7251;-60
2022/04/26 05:44:24;;;;;;;;;;;;;;;25.16;37.67;93787.75;5041645;28;9120;-59
2022/04/26 05:46:50;;;;;;;;;;;;;;;25.19;37.63;93783.94;5036165;28;7471;-60
2022/04/26 05:49:16;;;;;;;;;;;;;;;25.18;37.88;93787.22;5033246;28;6953;-60
2022/04/26 05:51:42;;;;;;;;;;;;;;;25.22;37.83;93782.88;5042246;28;9429;-60
2022/04/26 05:54:11;;;;;;;;;;;;;;;25.24;37.50;93782.34;5040058;28;8181;-61
2022/04/26 05:56:38;;;;;;;;;;;;;;;25.28;37.86;93786.28;5029994;28;7321;-60
2022/04/26 05:59:12;;;;;;;;;;;;;;;25.31;37.47;93770.75;5037484;28;9752;-59
2022/04/26 06:01:38;;;;;;;;;;;;;;;25.34;37.21;93783.44;5037411;28;8730;-60
2022/04/26 06:04:05;;;;;;;;;;;;;;;25.36;37.92;93780.91;5048737;28;7239;-60
2022/04/26 06:06:31;;;;;;;;;;;;;;;25.39;37.79;93786.13;5041998;28;9428;-61
2022/04/26 06:08:57;;;;;;;;;;;;;;;25.39;37.60;93783.38;5048391;28;7882;-61
2022/04/26 06:11:23;;;;;;;;;;;;;;;25.41;37.91;93783.59;5036513;28;7258;-61
2022/04/26 06:13:51;;;;;;;;;;;;;;;25.45;37.42;93804.63;5045397;28;8934;-61
2022/04/26 06:16:28;;;;;;;;;;;;;;;25.47;37.74;93807.59;5048827;28;9002;-61
2022/04/26 06:18:57;;;;;;;;;;;;;;;25.48;37.46;93812.56;5040813;28;7234;-61
2022/04/26 06:21:23;;;;;;;;;;;;;;;25.51;38.10;93817.03;5050024;28;9569;-61
2022/04/26 06:24:06;;;;;;;;;;;;;;;25.52;37.34;93818.50;5038438;28;7008;-61
2022/04/26 06:26:32;;;;;;;;;;;;;;;25.54;37.31;93826.97;5039552;28;9007;-61
2022/04/26 06:28:59;;;;;;;;;;;;;;;25.56;37.03;93835.47;5035559;28;7066;-60
2022/04/26 06:31:34;;;;;;;;;;;;;;;25.60;37.16;93841.41;5038719;28;9505;-60
2022/04/26 06:34:00;;;;;;;;;;;;;;;25.63;37.18;93843.13;5043401;28;8063;-60
2022/04/26 06:36:38;;;;;;;;;;;;;;;25.72;37.22;93841.97;5040389;28;9064;-60
2022/04/26 06:39:08;;;;;;;;;;;;;;;25.77;37.22;93844.66;5045327;28;7264;-60
2022/04/26 06:41:40;;;;;;;;;;;;;;;25.86;37.27;93849.03;5046772;28;8665;-60
2022/04/26 06:44:07;;;;;;;;;;;;;;;25.93;36.83;93837.38;5052201;28;9273;-60
2022/04/26 06:46:37;;;;;;;;;;;;;;;26.05;36.88;93838.69;5044085;28;7038;-60
2022/04/26 06:49:16;;;;;;;;;;;;;;;26.12;36.82;93836.06;5035042;28;7240;-60
2022/04/26 06:51:46;;;;;;;;;;;;;;;26.22;37.06;93843.94;5036403;28;10004;-60
2022/04/26 06:54:19;;;;;;;;;;;;;;;26.28;36.50;93850.09;5048411;28;7002;-60
2022/04/26 06:57:17;;;;;;;;;;;;;;;26.34;36.13;93856.25;5044448;28;8193;-60
2022/04/26 06:59:44;;;;;;;;;;;;;;;26.34;36.68;93856.25;4971842;28;7291;-59
2022/04/26 07:02:26;;;;;;;;;;;;;;;26.40;36.32;93857.66;4971550;28;7080;-59
2022/04/26 07:04:52;;;;;;;;;;;;;;;26.46;36.78;93861.03;4990790;28;9304;-59
2022/04/26 07:07:18;;;;;;;;;;;;;;;26.50;36.67;93861.47;4973672;28;7520;-59
2022/04/26 07:09:43;;;;;;;;;;;;;;;26.56;36.54;93864.13;4979205;28;9032;-60
2022/04/26 07:12:19;;;;;;;;;;;;;;;26.58;36.07;93872.59;4973001;28;7115;-59
2022/04/26 07:15:02;;;;;;;;;;;;;;;26.59;35.41;93879.63;4974467;28;9033;-58
2022/04/26 07:17:30;;;;;;;;;;;;;;;26.64;35.80;93887.06;4971674;28;9108;-59
2022/04/26 07:19:58;;;;;;;;;;;;;;;26.67;35.02;93885.97;4973671;28;7064;-59
2022/04/26 07:22:29;;;;;;;;;;;;;;;26.70;35.86;93901.47;4984521;28;7332;-59
2022/04/26 07:24:56;;;;;;;;;;;;;;;26.72;35.70;93902.44;4979439;28;9099;-59
2022/04/26 07:27:22;;;;;;;;;;;;;;;26.76;35.06;93933.25;4978673;28;7246;-59
2022/04/26 07:30:00;;;;;;;;;;;;;;;26.83;35.59;93937.38;4972969;28;7264;-59
2022/04/26 07:35:12;;;;;;;;;;;;;;;26.89;34.86;93951.81;4990735;28;9108;-59
2022/04/26 07:37:40;;;;;;;;;;;;;;;26.92;34.92;93953.53;5029401;28;9491;-59
2022/04/26 07:40:09;;;;;;;;;;;;;;;26.93;35.10;93955.00;5035428;28;9112;-61
2022/04/26 07:42:36;;;;;;;;;;;;;;;26.94;35.18;93953.75;5040964;28;7420;-61
2022/04/26 07:45:03;;;;;;;;;;;;;;;26.95;35.44;93957.97;5034961;28;8998;-60
2022/04/26 07:47:30;;;;;;;;;;;;;;;26.96;34.83;93973.28;5054923;28;9058;-60
2022/04/26 07:49:58;;;;;;;;;;;;;;;26.97;35.84;93974.03;5029612;28;9248;-60
2022/04/26 07:52:26;;;;;;;;;;;;;;;26.99;35.79;93983.22;5040928;28;7874;-60
2022/04/26 07:54:53;;;;;;;;;;;;;;;26.98;35.35;93981.00;5037236;28;9337;-60
2022/04/26 07:57:19;;;;;;;;;;;;;;;26.98;35.73;93987.28;5041911;28;7197;-60
2022/04/26 07:59:45;;;;;;;;;;;;;;;26.98;34.95;93983.78;5035892;28;9057;-60
2022/04/26 08:02:14;;;;;;;;;;;;;;;26.99;35.51;93988.03;5040988;28;9131;-60
2022/04/26 08:04:41;;;;;;;;;;;;;;;26.97;35.12;93996.09;5037404;28;7282;-60
2022/04/26 08:07:10;;;;;;;;;;;;;;;26.95;34.98;94004.16;5033008;28;9038;-60
2022/04/26 08:09:38;;;;;;;;;;;;;;;26.94;35.76;94013.72;5037082;28;9487;-61
2022/04/26 08:12:05;;;;;;;;;;;;;;;26.90;34.96;94008.50;5034861;28;7284;-60
2022/04/26 08:14:31;;;;;;;;;;;;;;;26.87;35.56;94023.34;5013552;28;7340;-60
2022/04/26 08:17:00;;;;;;;;;;;;;;;26.84;35.09;94022.38;5039978;28;8834;-60
2022/04/26 08:19:25;;;;;;;;;;;;;;;26.81;35.47;94028.22;5040409;28;7163;-61
2022/04/26 08:21:52;;;;;;;;;;;;;;;26.79;35.80;94033.53;5037114;28;7226;-61
2022/04/26 08:27:23;;;;;;;;;;;;;;;26.75;35.94;94052.41;5033232;28;7294;-60
2022/04/26 08:29:49;;;;;;;;;;;;;;;26.73;35.87;94052.94;5038315;28;7203;-60
2022/04/26 08:32:20;;;;;;;;;;;;;;;26.70;36.70;94069.78;5035700;28;6988;-60
2022/04/26 08:34:46;;;;;;;;;;;;;;;26.69;36.21;94060.75;5031086;28;7267;-60
2022/04/26 08:37:12;;;;;;;;;;;;;;;26.66;35.78;94072.09;5028056;28;7068;-60
2022/04/26 08:39:38;;;;;;;;;;;;;;;26.65;36.62;94067.84;5039378;28;9343;-61
2022/04/26 08:42:11;;;;;;;;;;;;;;;26.62;36.71;94071.66;5036588;28;9051;-60
2022/04/26 08:44:40;;;;;;;;;;;;;;;26.61;36.77;94076.44;5035432;28;7438;-60
2022/04/26 08:52:58;;;;;;;;;;;;;;;26.56;36.79;94084.78;5032857;28;8980;-61
2022/04/26 08:55:50;;;;;;;;;;;;;;;26.53;37.19;94085.84;5043392;28;7012;-61
2022/04/26 08:58:25;;;;;;;;;;;;;;;26.51;37.07;94083.59;5034302;28;9153;-61
2022/04/26 09:01:24;;;;;;;;;;;;;;;26.48;36.50;94084.66;5013781;28;7183;-60
2022/04/26 09:03:54;;;;;;;;;;;;;;;26.47;36.98;94091.41;5045265;28;6980;-61
2022/04/26 09:06:25;;;;;;;;;;;;;;;26.46;37.25;94089.94;5040205;28;7239;-61
2022/04/26 09:09:07;;;;;;;;;;;;;;;26.44;37.20;94100.75;5034965;28;7001;-61
2022/04/26 09:12:10;;;;;;;;;;;;;;;26.42;36.40;94110.81;5039349;28;7693;-60
2022/04/26 09:14:50;;;;;;;;;;;;;;;26.42;36.51;94113.56;4966722;28;7487;-60
2022/04/26 09:17:27;;;;;;;;;;;;;;;26.39;36.48;94103.56;4965269;28;8641;-61
2022/04/26 09:20:00;;;;;;;;;;;;;;;26.37;37.15;94104.09;4942072;28;7217;-61
2022/04/26 09:22:28;;;;;;;;;;;;;;;26.39;37.01;94109.09;4947012;28;7219;-60
2022/04/26 09:25:06;;;;;;;;;;;;;;;26.34;37.04;94113.41;4951172;28;8731;-60
2022/04/26 09:27:42;;;;;;;;;;;;;;;26.34;37.53;94124.44;4959377;28;8667;-60
2022/04/26 09:30:13;;;;;;;;;;;;;;;26.34;37.46;94118.94;4962963;28;7319;-61
2022/04/26 09:32:58;;;;;;;;;;;;;;;26.35;37.62;94131.47;4933513;28;9263;-61
2022/04/26 09:35:30;;;;;;;;;;;;;;;26.35;37.25;94141.75;4952601;28;7282;-61
2022/04/26 09:37:58;;;;;;;;;;;;;;;26.34;36.56;94141.00;4961737;28;7160;-61
2022/04/26 09:40:34;;;;;;;;;;;;;;;26.33;37.08;94152.53;4949363;28;7391;-60
2022/04/26 09:43:01;;;;;;;;;;;;;;;26.31;36.87;94152.31;4968838;28;7508;-60
2022/04/26 09:45:28;;;;;;;;;;;;;;;26.29;36.58;94150.09;4951838;28;9028;-61
2022/04/26 09:47:58;;;;;;;;;;;;;;;26.28;36.57;94159.63;4948172;28;7438;-61
2022/04/26 09:50:25;;;;;;;;;;;;;;;26.25;36.25;94166.19;4986163;28;7383;-61
2022/04/26 09:52:55;;;;;;;;;;;;;;;26.25;35.21;94159.94;5050284;28;9167;-61
2022/04/26 09:55:43;;;;;;;;;;;;;;;26.24;35.32;94166.69;5047389;28;8860;-61
2022/04/26 09:58:11;;;;;;;;;;;;;;;26.24;36.32;94155.66;5052131;28;7331;-61
2022/04/26 10:00:43;;;;;;;;;;;;;;;26.20;35.35;94155.22;5038496;28;9137;-61
2022/04/26 10:03:45;;;;;;;;;;;;;;;26.16;36.13;94153.50;5044787;28;7203;-61
2022/04/26 10:06:16;;;;;;;;;;;;;;;26.16;36.18;94159.00;4974976;28;7732;-60
2022/04/26 10:08:43;;;;;;;;;;;;;;;26.15;35.68;94157.53;4975467;28;9231;-61
2022/04/26 10:11:09;;;;;;;;;;;;;;;26.16;36.24;94158.28;4986151;28;8798;-61
2022/04/26 10:13:45;;;;;;;;;;;;;;;26.16;36.21;94141.75;4978108;28;9077;-61
2022/04/26 10:16:21;;;;;;;;;;;;;;;26.17;36.46;94160.50;4989488;28;7062;-61
2022/04/26 10:19:16;;;;;;;;;;;;;;;26.10;36.34;94163.84;4977042;28;6982;-62
2022/04/26 10:21:53;;;;;;;;;;;;;;;26.14;36.22;94167.06;4971187;28;9136;-62
2022/04/26 10:24:23;;;;;;;;;;;;;;;26.12;36.19;94155.09;4992542;28;9202;-61
2022/04/26 10:27:16;;;;;;;;;;;;;;;26.11;35.82;94162.59;4987332;28;8074;-61
2022/04/26 10:29:49;;;;;;;;;;;;;;;26.08;35.84;94168.34;4973788;28;9022;-61
2022/04/26 10:32:34;;;;;;;;;;;;;;;26.09;36.36;94164.38;4988331;28;7258;-62
2022/04/26 10:35:27;;;;;;;;;;;;;;;26.06;35.67;94168.88;4974738;28;9461;-62
2022/04/26 10:38:13;;;;;;;;;;;;;;;26.04;36.33;94167.91;4998547;28;9304;-62
2022/04/26 10:41:04;;;;;;;;;;;;;;;26.03;35.76;94167.16;4980896;28;7335;-62
2022/04/26 10:43:30;;;;;;;;;;;;;;;26.03;36.46;94177.47;5030836;28;6992;-62
2022/04/26 10:46:14;;;;;;;;;;;;;;;26.03;36.81;94164.41;5040720;28;6884;-62
2022/04/26 10:48:41;;;;;;;;;;;;;;;26.01;37.44;94172.44;5039901;28;9095;-62
2022/04/26 10:51:35;;;;;;;;;;;;;;;26.01;37.30;94172.44;5040332;28;7267;-62
2022/04/26 10:54:05;;;;;;;;;;;;;;;25.98;37.21;94170.75;5054746;28;8868;-62
2022/04/26 10:56:32;;;;;;;;;;;;;;;26.00;36.70;94165.44;5037469;28;8814;-62
2022/04/26 10:59:01;;;;;;;;;;;;;;;25.99;36.99;94155.69;5039428;28;9241;-61
2022/04/26 11:01:28;;;;;;;;;;;;;;;26.01;37.34;94163.44;5043686;28;9057;-62
2022/04/26 11:03:57;;;;;;;;;;;;;;;26.01;37.11;94168.97;5047273;28;8795;-62
2022/04/26 11:06:39;;;;;;;;;;;;;;;26.03;36.95;94169.91;5037775;28;7208;-62
2022/04/26 11:09:14;;;;;;;;;;;;;;;26.05;37.40;94178.44;5037308;28;7556;-61
2022/04/26 11:11:53;;;;;;;;;;;;;;;26.02;37.02;94176.69;5034120;28;7032;-61
2022/04/26 11:14:27;;;;;;;;;;;;;;;26.04;37.79;94179.69;5047562;28;9402;-61
2022/04/26 11:16:58;;;;;;;;;;;;;;;26.01;37.14;94182.75;5040674;28;7240;-61
2022/04/26 11:19:32;;;;;;;;;;;;;;;26.03;37.24;94178.19;5046966;28;7334;-61
2022/04/26 11:22:14;;;;;;;;;;;;;;;26.01;37.68;94188.97;5046319;28;7250;-61
2022/04/26 11:30:45;;;;;;;;;;;;;;;26.01;37.46;94185.50;5043043;28;7305;-61
2022/04/26 11:33:31;;;;;;;;;;;;;;;25.98;37.74;94181.75;5038905;28;9116;-61
2022/04/26 11:36:08;;;;;;;;;;;;;;;26.01;37.50;94186.22;5037987;28;7237;-61
2022/04/26 11:39:07;;;;;;;;;;;;;;;26.02;38.21;94181.47;5047790;28;7078;-61
2022/04/26 11:41:42;;;;;;;;;;;;;;;26.01;37.82;94175.19;5034738;28;7229;-61
2022/04/26 11:44:22;;;;;;;;;;;;;;;26.05;37.42;94177.69;5038097;28;6860;-61
2022/04/26 11:47:03;;;;;;;;;;;;;;;26.05;37.67;94186.69;5038197;28;8424;-61
2022/04/26 11:49:40;;;;;;;;;;;;;;;26.06;37.11;94179.91;5048718;28;7567;-61
2022/04/26 11:52:22;;;;;;;;;;;;;;;26.03;37.33;94169.19;5043135;28;7299;-61
2022/04/26 11:54:50;;;;;;;;;;;;;;;26.01;36.85;94172.44;5037288;28;8851;-62
2022/04/26 11:57:47;;;;;;;;;;;;;;;26.01;37.02;94169.69;5045615;28;7272;-61
2022/04/26 12:00:16;;;;;;;;;;;;;;;26.03;37.35;94160.91;4945483;28;9134;-62
2022/04/26 12:03:17;;;;;;;;;;;;;;;26.02;37.06;94159.41;4962837;28;9470;-63
2022/04/26 12:05:44;;;;;;;;;;;;;;;26.03;37.18;94160.91;4925631;29;9134;-63
2022/04/26 12:08:12;;;;;;;;;;;;;;;26.03;37.40;94163.69;4914535;29;9053;-63
2022/04/26 12:10:39;;;;;;;;;;;;;;;26.02;37.11;94162.16;4928581;29;9403;-61
2022/04/26 12:13:07;;;;;;;;;;;;;;;26.03;36.93;94160.91;4910825;29;9074;-62
2022/04/26 12:15:38;;;;;;;;;;;;;;;25.99;37.22;94161.19;4908626;29;9171;-63
2022/04/26 12:18:13;;;;;;;;;;;;;;;26.01;36.74;94155.91;4921581;29;9134;-63
2022/04/26 12:21:02;;;;;;;;;;;;;;;26.01;37.75;94155.91;4925241;29;9411;-63
2022/04/26 12:23:41;;;;;;;;;;;;;;;26.02;37.02;94154.66;4913206;29;8755;-63
2022/04/26 12:26:09;;;;;;;;;;;;;;;26.05;37.08;94152.88;4921778;29;7226;-63
2022/04/26 12:29:11;;;;;;;;;;;;;;;26.07;37.55;94150.34;4913219;29;7194;-63
2022/04/26 12:31:57;;;;;;;;;;;;;;;26.10;36.89;94149.31;4912360;29;7131;-63
2022/04/26 12:34:31;;;;;;;;;;;;;;;26.11;36.75;94143.31;4928802;29;7347;-62
2022/04/26 12:37:06;;;;;;;;;;;;;;;26.09;36.66;94142.31;4963701;28;9036;-62
2022/04/26 12:39:50;;;;;;;;;;;;;;;26.09;36.56;94134.06;4987380;28;9044;-62
2022/04/26 12:42:28;;;;;;;;;;;;;;;26.10;36.45;94138.28;5038059;28;8735;-62
2022/04/26 12:45:06;;;;;;;;;;;;;;;26.11;35.96;94139.78;5052356;28;7379;-62
2022/04/26 12:50:30;;;;;;;;;;;;;;;26.04;36.99;94132.84;5044155;28;6982;-61
2022/04/26 12:53:02;;;;;;;;;;;;;;;26.04;37.30;94138.34;5041517;28;7465;-62
2022/04/26 12:55:42;;;;;;;;;;;;;;;26.08;37.25;94146.31;5047328;28;8371;-62
2022/04/26 12:58:16;;;;;;;;;;;;;;;26.11;37.23;94145.31;5049985;28;9042;-62
2022/04/26 13:00:53;;;;;;;;;;;;;;;26.14;37.64;94136.00;5043715;28;9191;-61
2022/04/26 13:03:28;;;;;;;;;;;;;;;26.14;37.66;94142.25;5037840;28;6996;-61
2022/04/26 13:06:24;;;;;;;;;;;;;;;26.17;37.51;94135.69;5046844;28;7002;-62
2022/04/26 13:08:51;;;;;;;;;;;;;;;26.19;38.38;94129.66;5041570;28;7472;-62
2022/04/26 13:11:18;;;;;;;;;;;;;;;26.15;38.55;94118.94;5047415;28;8262;-61
2022/04/26 13:13:51;;;;;;;;;;;;;;;26.19;38.30;94120.66;5046374;28;9414;-62
2022/04/26 13:16:18;;;;;;;;;;;;;;;26.17;38.11;94121.91;5042068;28;7283;-61
2022/04/26 13:18:49;;;;;;;;;;;;;;;26.19;37.86;94121.38;5050732;28;9084;-61
2022/04/26 13:21:24;;;;;;;;;;;;;;;26.22;37.91;94116.84;5046103;28;7028;-61
2022/04/26 13:23:52;;;;;;;;;;;;;;;26.21;38.10;94112.63;5050884;28;6843;-61
2022/04/26 13:26:30;;;;;;;;;;;;;;;26.22;38.27;94111.34;5047098;28;7565;-61
2022/04/26 13:29:07;;;;;;;;;;;;;;;26.25;37.69;94113.06;5036073;28;9426;-61
2022/04/26 13:31:41;;;;;;;;;;;;;;;26.24;38.47;94117.06;5046230;28;9215;-61
2022/04/26 13:34:07;;;;;;;;;;;;;;;26.25;38.26;94115.81;5040597;28;9262;-62
2022/04/26 13:36:41;;;;;;;;;;;;;;;26.27;37.50;94118.78;5039776;28;7229;-61
2022/04/26 13:39:13;;;;;;;;;;;;;;;26.30;34.26;94128.75;5036786;28;7233;-62
2022/04/26 13:42:00;;;;;;;;;;;;;;;26.26;34.85;94128.31;5035454;28;9158;-61
2022/04/26 13:44:30;;;;;;;;;;;;;;;26.26;34.67;94123.56;5042767;28;9124;-61
2022/04/26 13:46:57;;;;;;;;;;;;;;;26.21;31.61;94129.16;5037775;28;8539;-62
2022/04/26 13:49:27;;;;;;;;;;;;;;;26.24;30.11;94125.34;5047670;28;9475;-62
2022/04/26 13:51:53;;;;;;;;;;;;;;;26.21;30.00;94138.16;5046201;28;7453;-61
2022/04/26 13:54:23;;;;;;;;;;;;;;;26.22;30.66;94123.13;5032555;28;7349;-61
2022/04/26 13:56:52;;;;;;;;;;;;;;;26.26;31.12;94131.84;5033291;28;7141;-62
2022/04/26 13:59:28;;;;;;;;;;;;;;;26.25;31.83;94126.84;5043357;28;9073;-61
2022/04/26 14:01:55;;;;;;;;;;;;;;;26.29;32.52;94130.03;5043607;28;7430;-62
2022/04/26 14:04:22;;;;;;;;;;;;;;;26.31;31.93;94131.03;5046065;28;9156;-59
2022/04/26 14:06:48;;;;;;;;;;;;;;;26.32;32.18;94148.31;5047289;28;7753;-60
2022/04/26 14:09:14;;;;;;;;;;;;;;;26.29;33.38;94132.81;5046887;28;7412;-61
2022/04/26 14:11:41;;;;;;;;;;;;;;;26.29;32.44;94144.59;5046784;28;6998;-60
2022/04/26 14:22:38;;;;;;;;;;;;;;;26.22;33.54;94142.41;5047775;28;7235;-61
2022/04/26 14:25:14;;;;;;;;;;;;;;;26.16;34.39;94142.47;5030841;28;7004;-61
2022/04/26 14:28:32;;;;;;;;;;;;;;;26.15;33.41;94146.50;5037345;28;7335;-61
2022/04/26 14:31:12;;;;;;;;;;;;;;;26.16;33.81;94147.97;4984550;28;7490;-61
2022/04/26 14:34:14;;;;;;;;;;;;;;;26.16;34.20;94147.97;4973037;28;9098;-61
2022/04/26 14:37:02;;;;;;;;;;;;;;;26.16;33.91;94147.97;4988345;28;7091;-61
2022/04/26 14:39:27;;;;;;;;;;;;;;;26.11;34.00;94140.53;4978393;28;7932;-61
2022/04/26 14:42:05;;;;;;;;;;;;;;;26.13;33.84;94149.03;4976353;28;7002;-61
2022/04/26 14:44:44;;;;;;;;;;;;;;;26.15;34.46;94141.00;4975710;28;7237;-61
2022/04/26 14:47:34;;;;;;;;;;;;;;;26.14;33.90;94147.03;4970231;28;7032;-61
2022/04/26 14:50:17;;;;;;;;;;;;;;;26.09;34.64;94148.59;4986166;28;7189;-61
2022/04/26 14:52:44;;;;;;;;;;;;;;;26.10;35.05;94152.06;4985760;28;9009;-61
2022/04/26 14:55:20;;;;;;;;;;;;;;;26.12;34.79;94157.84;4972892;28;7146;-61
2022/04/26 14:57:46;;;;;;;;;;;;;;;26.12;34.80;94153.03;4987734;28;7134;-61
2022/04/26 15:00:12;;;;;;;;;;;;;;;26.14;34.45;94153.28;4975209;28;9297;-62
2022/04/26 15:02:39;;;;;;;;;;;;;;;26.12;34.44;94142.03;4974436;28;7059;-61
2022/04/26 15:05:09;;;;;;;;;;;;;;;26.16;34.59;94147.97;4970325;28;7246;-61
2022/04/26 15:10:24;;;;;;;;;;;;;;;26.17;34.80;94149.50;5034684;28;7454;-61
2022/04/26 15:18:27;;;;;;;;;;;;;;;26.17;34.60;94152.25;5042822;28;7214;-60
2022/04/26 15:21:00;;;;;;;;;;;;;;;26.16;35.07;94147.25;5035345;28;9008;-60
2022/04/26 15:23:25;;;;;;;;;;;;;;;26.14;34.69;94144.28;5036819;28;7316;-61
2022/04/26 15:25:59;;;;;;;;;;;;;;;26.21;35.14;94151.22;5049396;28;8459;-61
2022/04/26 15:28:25;;;;;;;;;;;;;;;26.20;35.21;94152.47;5037342;28;9093;-61
2022/04/26 15:30:51;;;;;;;;;;;;;;;26.25;34.87;94146.16;5033388;28;7595;-61
2022/04/26 15:33:20;;;;;;;;;;;;;;;26.24;34.97;94141.88;5035840;28;8737;-61
2022/04/26 15:35:46;;;;;;;;;;;;;;;26.23;34.69;94138.38;5044840;28;9215;-62
2022/04/26 15:38:13;;;;;;;;;;;;;;;26.22;35.33;94145.16;5034681;28;6870;-61
2022/04/26 15:40:43;;;;;;;;;;;;;;;26.19;35.10;94145.47;5030601;28;9201;-61
2022/04/26 15:43:13;;;;;;;;;;;;;;;26.18;35.50;94144.72;5029268;28;7000;-61
2022/04/26 15:45:39;;;;;;;;;;;;;;;26.16;35.01;94136.97;5041736;28;9575;-61
2022/04/26 15:48:08;;;;;;;;;;;;;;;26.13;35.41;94134.50;5045374;28;7441;-61
2022/04/26 15:50:34;;;;;;;;;;;;;;;26.18;35.53;94139.22;5044512;28;9050;-62
2022/04/26 15:53:12;;;;;;;;;;;;;;;26.11;35.24;94129.53;5058209;28;8198;-61
2022/04/26 15:55:45;;;;;;;;;;;;;;;26.16;35.69;94136.97;5048305;28;9418;-61
2022/04/26 15:58:20;;;;;;;;;;;;;;;26.21;34.97;94134.66;5033865;28;7478;-61
2022/04/26 16:00:57;;;;;;;;;;;;;;;26.27;35.14;94138.84;5046670;28;7413;-61
2022/04/26 16:03:29;;;;;;;;;;;;;;;26.28;35.40;94136.81;5044713;28;7232;-61
2022/04/26 16:05:57;;;;;;;;;;;;;;;26.28;35.38;94136.81;5040965;28;7271;-62
2022/04/26 16:08:23;;;;;;;;;;;;;;;26.30;35.02;94134.28;5046968;28;7048;-60
2022/04/26 16:22:32;;;;;;;;;;;;;;;26.35;35.44;94136.22;5040567;28;7251;-61
2022/04/26 16:25:06;;;;;;;;;;;;;;;26.38;34.97;94141.44;5050768;28;8905;-61
2022/04/26 16:27:32;;;;;;;;;;;;;;;26.39;35.32;94133.91;5057200;28;7253;-61
2022/04/26 16:30:01;;;;;;;;;;;;;;;26.41;35.27;94139.66;5046534;28;7402;-61
2022/04/26 16:32:36;;;;;;;;;;;;;;;26.43;36.07;94148.13;5047841;28;8789;-61
2022/04/26 16:35:08;;;;;;;;;;;;;;;26.40;35.41;94143.69;5034984;28;9037;-61
2022/04/26 16:37:35;;;;;;;;;;;;;;;26.40;35.70;94144.44;5048362;28;7170;-60
2022/04/26 16:40:28;;;;;;;;;;;;;;;26.41;35.22;94142.41;5047269;28;7388;-61
2022/04/26 16:43:07;;;;;;;;;;;;;;;26.41;36.16;94139.66;5049848;28;9091;-61
2022/04/26 16:45:33;;;;;;;;;;;;;;;26.42;35.07;94141.91;5056144;28;7804;-61
2022/04/26 16:48:03;;;;;;;;;;;;;;;26.41;35.97;94137.63;5035944;28;9076;-61
2022/04/26 16:50:31;;;;;;;;;;;;;;;26.41;35.81;94145.16;5050431;28;9086;-61
2022/04/26 16:53:00;;;;;;;;;;;;;;;26.38;35.37;94143.47;5034509;28;8766;-61
2022/04/26 16:55:29;;;;;;;;;;;;;;;26.36;35.29;94143.25;5046444;28;7255;-61
2022/04/26 16:58:06;;;;;;;;;;;;;;;26.31;36.25;94152.31;5028640;28;7000;-60
2022/04/26 17:00:33;;;;;;;;;;;;;;;26.29;35.56;94146.59;5038854;28;7278;-61
2022/04/26 17:03:02;;;;;;;;;;;;;;;26.27;36.02;94146.38;5031259;28;7303;-63
2022/04/26 17:05:28;;;;;;;;;;;;;;;26.28;35.49;94154.09;5035903;28;7166;-61
2022/04/26 17:07:56;;;;;;;;;;;;;;;26.30;35.94;94153.56;5030634;28;7238;-61
2022/04/26 17:10:23;;;;;;;;;;;;;;;26.27;36.24;94149.88;5032180;28;8799;-61
2022/04/26 17:13:08;;;;;;;;;;;;;;;26.26;35.49;94155.88;5041681;28;9091;-61
2022/04/26 17:15:48;;;;;;;;;;;;;;;26.25;36.43;94155.16;5031571;28;9348;-62
2022/04/26 17:18:22;;;;;;;;;;;;;;;26.28;36.05;94164.38;5034440;28;7841;-62
2022/04/26 17:21:08;;;;;;;;;;;;;;;26.30;35.52;94161.84;5034165;28;9114;-62
2022/04/26 17:23:41;;;;;;;;;;;;;;;26.27;36.44;94162.91;5040924;28;8090;-61
2022/04/26 17:26:13;;;;;;;;;;;;;;;26.27;36.04;94157.41;5044787;28;9168;-61
2022/04/26 17:28:55;;;;;;;;;;;;;;;26.29;35.65;94157.63;5029874;28;9038;-62
2022/04/26 17:31:33;;;;;;;;;;;;;;;26.29;35.63;94163.13;5047518;28;7246;-62
2022/04/26 17:34:02;;;;;;;;;;;;;;;26.27;35.82;94157.41;5046252;28;7254;-62
2022/04/26 17:36:30;;;;;;;;;;;;;;;26.29;36.15;94154.88;5041509;28;8733;-62
2022/04/26 17:38:58;;;;;;;;;;;;;;;26.27;35.65;94157.41;5048314;28;7524;-61
2022/04/26 17:41:40;;;;;;;;;;;;;;;26.27;35.61;94163.66;5040183;28;8755;-62
2022/04/26 17:44:08;;;;;;;;;;;;;;;26.26;36.43;94162.16;5047582;28;7234;-62
2022/04/26 17:46:40;;;;;;;;;;;;;;;26.29;36.20;94172.16;5041510;28;6996;-62
2022/04/26 17:49:12;;;;;;;;;;;;;;;26.29;35.30;94172.16;5043874;28;9215;-62
2022/04/26 17:51:48;;;;;;;;;;;;;;;26.28;36.08;94170.66;5047467;28;7918;-62
2022/04/26 17:57:08;;;;;;;;;;;;;;;26.27;36.02;94173.94;5040767;28;7292;-62
2022/04/26 17:59:40;;;;;;;;;;;;;;;26.26;35.65;94167.66;5050728;28;9184;-62